Time;durP1;ratioP1;P1;durP2;ratioP2;P2;SDS_P1;SDS_P2;PMS_P1;PMS_P2;Temp;Humidity;BMP_temperature;BMP_pressure;BME280_temperature;BME280_humidity;BME280_pressure;Samples;Min_cycle;Max_cycle;Signal;HPM_P1;HPM_P2
2021/07/30 00:00:05;;;;;;;;;;;;;;;21.92;54.79;95371.72;1044795;28;1177;-70
2021/07/30 00:00:35;;;;;;;;;;;;;;;21.92;54.95;95374.34;1045377;28;1570;-70
2021/07/30 00:01:05;;;;;;;;;;;;;;;21.91;55.04;95373.56;1044777;28;1339;-70
2021/07/30 00:01:35;;;;;;;;;;;;;;;21.92;54.94;95374.34;1044974;28;1975;-70
2021/07/30 00:02:06;;;;;;;;;;;;;;;21.90;54.86;95377.28;1044866;28;1139;-70
2021/07/30 00:02:36;;;;;;;;;;;;;;;21.91;54.97;95378.09;1045061;28;1170;-70
2021/07/30 00:03:06;;;;;;;;;;;;;;;21.89;55.27;95370.44;1045294;28;1194;-70
2021/07/30 00:03:37;;;;;;;;;;;;;;;21.90;54.95;95372.00;1043868;28;1833;-70
2021/07/30 00:04:07;;;;;;;;;;;;;;;21.88;55.09;95367.00;1043531;28;1867;-69
2021/07/30 00:04:37;;;;;;;;;;;;;;;21.86;55.04;95376.31;1043324;28;2245;-69
2021/07/30 00:05:08;;;;;;;;;;;;;;;21.85;55.20;95369.44;1048440;28;1139;-69
2021/07/30 00:05:38;;;;;;;;;;;;;;;21.86;55.37;95371.03;1046690;28;1395;-69
2021/07/30 00:06:08;;;;;;;;;;;;;;;21.85;54.94;95366.81;1041652;28;1203;-69
2021/07/30 00:06:38;;;;;;;;;;;;;;;21.86;55.21;95365.75;1040861;28;1231;-70
2021/07/30 00:07:09;;;;;;;;;;;;;;;21.85;55.02;95369.44;1039829;28;1837;-70
2021/07/30 00:07:39;;;;;;;;;;;;;;;21.83;55.00;95368.97;1040555;28;1974;-69
2021/07/30 00:08:09;;;;;;;;;;;;;;;21.82;55.15;95365.53;1044978;28;1163;-69
2021/07/30 00:08:39;;;;;;;;;;;;;;;21.84;55.44;95367.91;1045364;28;1018;-69
2021/07/30 00:09:12;;;;;;;;;;;;;;;21.83;55.11;95371.59;1044979;28;1126;-69
2021/07/30 00:09:42;;;;;;;;;;;;;;;21.82;55.31;95364.78;1041946;28;1933;-69
2021/07/30 00:10:12;;;;;;;;;;;;;;;21.83;55.14;95363.69;1045258;28;1309;-70
2021/07/30 00:10:42;;;;;;;;;;;;;;;21.81;55.47;95371.06;1045208;28;899;-70
2021/07/30 00:11:13;;;;;;;;;;;;;;;21.79;55.41;95360.03;1044965;28;1231;-69
2021/07/30 00:11:43;;;;;;;;;;;;;;;21.80;55.41;95364.25;1044784;28;1252;-70
2021/07/30 00:12:13;;;;;;;;;;;;;;;21.78;55.17;95371.66;1044587;28;1258;-69
2021/07/30 00:12:44;;;;;;;;;;;;;;;21.76;55.45;95376.44;1045438;28;1154;-69
2021/07/30 00:13:14;;;;;;;;;;;;;;;21.77;55.43;95367.44;1045268;28;1115;-70
2021/07/30 00:13:44;;;;;;;;;;;;;;;21.77;55.34;95370.09;1045211;28;1122;-70
2021/07/30 00:14:15;;;;;;;;;;;;;;;21.75;55.30;95366.97;1044678;28;1707;-70
2021/07/30 00:14:45;;;;;;;;;;;;;;;21.74;55.60;95362.78;1040269;28;1632;-70
2021/07/30 00:15:15;;;;;;;;;;;;;;;21.74;55.51;95368.03;1040007;28;2315;-70
2021/07/30 00:15:46;;;;;;;;;;;;;;;21.71;55.60;95369.41;1040543;28;1586;-70
2021/07/30 00:16:16;;;;;;;;;;;;;;;21.70;55.50;95362.53;1045000;28;1319;-69
2021/07/30 00:16:46;;;;;;;;;;;;;;;21.72;55.51;95367.56;1045055;28;1042;-69
2021/07/30 00:17:16;;;;;;;;;;;;;;;21.70;55.55;95367.06;1042451;28;1675;-69
2021/07/30 00:17:47;;;;;;;;;;;;;;;21.69;55.41;95365.47;1043533;28;1194;-70
2021/07/30 00:18:17;;;;;;;;;;;;;;;21.66;55.63;95368.69;1048133;28;1095;-69
2021/07/30 00:18:47;;;;;;;;;;;;;;;21.63;55.72;95374.56;1045891;28;1126;-69
2021/07/30 00:19:18;;;;;;;;;;;;;;;21.61;55.85;95374.84;1047594;28;1155;-69
2021/07/30 00:19:48;;;;;;;;;;;;;;;21.58;55.88;95367.50;1044714;28;1147;-69
2021/07/30 00:20:18;;;;;;;;;;;;;;;21.58;55.77;95375.41;1044012;28;2307;-70
2021/07/30 00:20:48;;;;;;;;;;;;;;;21.56;55.79;95372.28;1044794;28;1116;-69
2021/07/30 00:21:19;;;;;;;;;;;;;;;21.55;55.74;95365.44;1043330;28;1303;-69
2021/07/30 00:21:49;;;;;;;;;;;;;;;21.55;56.11;95369.94;1041588;28;1934;-69
2021/07/30 00:22:19;;;;;;;;;;;;;;;21.51;56.28;95371.59;1044328;28;2031;-69
2021/07/30 00:22:49;;;;;;;;;;;;;;;21.48;56.06;95372.16;1044607;28;1191;-69
2021/07/30 00:23:20;;;;;;;;;;;;;;;21.45;56.51;95372.75;1044090;28;1154;-69
2021/07/30 00:23:50;;;;;;;;;;;;;;;21.43;56.41;95370.38;1045236;28;1198;-69
2021/07/30 00:24:20;;;;;;;;;;;;;;;21.40;56.41;95373.59;1044116;28;1303;-69
2021/07/30 00:24:50;;;;;;;;;;;;;;;21.36;56.65;95363.91;1040760;28;1470;-70
2021/07/30 00:25:21;;;;;;;;;;;;;;;21.34;56.88;95368.69;1041128;28;2343;-70
2021/07/30 00:25:51;;;;;;;;;;;;;;;21.31;56.48;95371.91;1041493;28;2154;-72
2021/07/30 00:26:21;;;;;;;;;;;;;;;21.31;56.84;95369.28;1039987;28;2093;-69
2021/07/30 00:26:52;;;;;;;;;;;;;;;21.30;56.99;95375.59;1044897;28;1092;-69
2021/07/30 00:27:22;;;;;;;;;;;;;;;21.26;56.91;95367.50;1044202;28;1928;-69
2021/07/30 00:27:52;;;;;;;;;;;;;;;21.24;57.03;95371.47;1046070;28;1287;-69
2021/07/30 00:28:22;;;;;;;;;;;;;;;21.22;56.96;95368.34;1049180;28;807;-69
2021/07/30 00:28:53;;;;;;;;;;;;;;;21.22;57.18;95366.50;1048332;28;1205;-69
2021/07/30 00:29:23;;;;;;;;;;;;;;;21.21;57.09;95364.91;1044393;28;1146;-69
2021/07/30 00:29:53;;;;;;;;;;;;;;;21.20;57.18;95367.84;1046188;28;1119;-69
2021/07/30 00:30:23;;;;;;;;;;;;;;;21.18;57.28;95367.34;1043914;28;2657;-69
2021/07/30 00:30:54;;;;;;;;;;;;;;;21.16;56.99;95367.66;1044160;28;1440;-69
2021/07/30 00:31:24;;;;;;;;;;;;;;;21.14;57.24;95364.50;1045101;28;1391;-69
2021/07/30 00:31:54;;;;;;;;;;;;;;;21.13;57.64;95372.69;1039758;28;1094;-70
2021/07/30 00:32:25;;;;;;;;;;;;;;;21.12;57.32;95365.84;1042136;28;1321;-70
2021/07/30 00:32:55;;;;;;;;;;;;;;;21.08;57.57;95366.41;1042456;28;1155;-70
2021/07/30 00:33:25;;;;;;;;;;;;;;;21.05;57.93;95367.00;1040695;28;1104;-69
2021/07/30 00:33:55;;;;;;;;;;;;;;;21.04;57.84;95362.78;1044920;28;1148;-70
2021/07/30 00:34:26;;;;;;;;;;;;;;;21.02;57.87;95362.28;1044248;28;1436;-69
2021/07/30 00:34:56;;;;;;;;;;;;;;;21.02;57.70;95366.75;1042627;28;2013;-69
2021/07/30 00:35:26;;;;;;;;;;;;;;;21.03;57.80;95368.34;1044577;28;1034;-70
2021/07/30 00:35:57;;;;;;;;;;;;;;;21.02;57.84;95367.56;1045410;28;1111;-70
2021/07/30 00:36:27;;;;;;;;;;;;;;;21.03;57.58;95366.50;1041337;28;1614;-70
2021/07/30 00:36:57;;;;;;;;;;;;;;;21.02;57.85;95364.91;1045664;28;2174;-70
2021/07/30 00:37:27;;;;;;;;;;;;;;;21.03;57.91;95357.81;1045665;28;1240;-70
2021/07/30 00:37:58;;;;;;;;;;;;;;;21.05;57.90;95368.84;1047182;28;1099;-70
2021/07/30 00:38:28;;;;;;;;;;;;;;;21.04;57.88;95367.28;1047009;28;1049;-69
2021/07/30 00:38:58;;;;;;;;;;;;;;;21.02;57.67;95362.28;1047194;28;1656;-70
2021/07/30 00:39:28;;;;;;;;;;;;;;;21.00;57.92;95361.75;1049279;28;863;-69
2021/07/30 00:39:59;;;;;;;;;;;;;;;21.00;58.09;95367.03;1048146;28;2102;-69
2021/07/30 00:40:29;;;;;;;;;;;;;;;20.99;57.83;95362.84;1044066;28;1544;-70
2021/07/30 00:41:02;;;;;;;;;;;;;;;20.99;58.11;95357.56;1043117;28;1096;-70
2021/07/30 00:41:39;;;;;;;;;;;;;;;21.00;58.16;95361.75;1044585;28;1439;-70
2021/07/30 00:42:09;;;;;;;;;;;;;;;20.99;58.24;95357.56;1044677;28;1289;-70
2021/07/30 00:42:52;;;;;;;;;;;;;;;20.98;57.99;95366.53;1044767;28;1539;-69
2021/07/30 00:43:22;;;;;;;;;;;;;;;20.97;58.26;95359.72;1044809;28;1162;-69
2021/07/30 00:43:52;;;;;;;;;;;;;;;20.97;58.40;95359.72;1044322;28;1951;-70
2021/07/30 00:44:23;;;;;;;;;;;;;;;20.98;58.19;95365.75;1044450;28;1360;-70
2021/07/30 00:44:53;;;;;;;;;;;;;;;20.99;58.09;95364.69;1045996;28;1187;-69
2021/07/30 00:45:24;;;;;;;;;;;;;;;20.99;58.26;95367.31;1041240;28;2144;-69
2021/07/30 00:45:55;;;;;;;;;;;;;;;20.99;58.18;95367.31;1043345;28;1346;-69
2021/07/30 00:46:27;;;;;;;;;;;;;;;20.99;58.04;95365.47;1036705;28;991;-70
2021/07/30 00:46:57;;;;;;;;;;;;;;;20.99;58.21;95372.59;1044186;28;1152;-69
2021/07/30 00:47:27;;;;;;;;;;;;;;;20.99;57.89;95368.13;1045167;28;1190;-70
2021/07/30 00:47:58;;;;;;;;;;;;;;;20.97;58.32;95367.63;1045079;28;1213;-69
2021/07/30 00:48:29;;;;;;;;;;;;;;;20.97;58.04;95364.97;1038326;28;1194;-69
2021/07/30 00:48:59;;;;;;;;;;;;;;;20.96;58.28;95362.59;1036509;28;1133;-69
2021/07/30 00:49:29;;;;;;;;;;;;;;;20.96;58.07;95366.03;1040273;28;863;-69
2021/07/30 00:50:00;;;;;;;;;;;;;;;20.97;58.11;95364.97;1038089;28;1140;-69
2021/07/30 00:50:30;;;;;;;;;;;;;;;20.96;58.15;95371.31;1036554;28;1569;-69
2021/07/30 00:51:00;;;;;;;;;;;;;;;20.96;58.34;95368.66;1041069;28;1137;-69
2021/07/30 00:51:31;;;;;;;;;;;;;;;20.97;58.10;95372.88;1048283;28;1217;-69
2021/07/30 00:52:03;;;;;;;;;;;;;;;20.97;58.26;95362.34;1044732;28;1171;-69
2021/07/30 00:52:33;;;;;;;;;;;;;;;20.97;58.19;95370.25;1036142;28;1930;-69
2021/07/30 00:53:03;;;;;;;;;;;;;;;20.97;57.93;95367.63;1039106;28;1199;-68
2021/07/30 00:53:34;;;;;;;;;;;;;;;20.97;57.97;95364.97;1038073;28;1364;-69
2021/07/30 00:54:04;;;;;;;;;;;;;;;20.95;57.99;95367.13;1039284;28;1288;-70
2021/07/30 00:54:34;;;;;;;;;;;;;;;20.94;58.20;95370.81;1041061;28;1412;-70
2021/07/30 00:55:05;;;;;;;;;;;;;;;20.95;58.16;95368.97;1035615;28;2114;-69
2021/07/30 00:55:36;;;;;;;;;;;;;;;20.94;58.15;95365.53;1036634;28;1862;-69
2021/07/30 00:56:06;;;;;;;;;;;;;;;20.94;58.00;95376.06;1039655;28;1097;-70
2021/07/30 00:56:36;;;;;;;;;;;;;;;20.90;58.18;95369.81;1040084;28;1191;-70
2021/07/30 00:57:06;;;;;;;;;;;;;;;20.90;58.42;95369.00;1043882;28;1147;-69
2021/07/30 00:57:37;;;;;;;;;;;;;;;20.89;58.29;95368.25;1044886;28;943;-70
2021/07/30 00:58:07;;;;;;;;;;;;;;;20.90;58.22;95371.66;1040509;28;1148;-69
2021/07/30 00:58:37;;;;;;;;;;;;;;;20.89;58.12;95372.72;1038752;28;1108;-69
2021/07/30 00:59:08;;;;;;;;;;;;;;;20.89;58.14;95373.53;1040545;28;1187;-69
2021/07/30 00:59:38;;;;;;;;;;;;;;;20.90;58.42;95377.72;1036346;28;1073;-70
2021/07/30 01:00:08;;;;;;;;;;;;;;;20.89;58.20;95367.47;1038593;28;2111;-69
2021/07/30 01:00:39;;;;;;;;;;;;;;;20.87;58.36;95370.38;1040037;28;1717;-69
2021/07/30 01:01:10;;;;;;;;;;;;;;;20.86;58.52;95375.91;1040107;28;1435;-70
2021/07/30 01:01:40;;;;;;;;;;;;;;;20.84;58.23;95376.22;1040244;28;1914;-70
2021/07/30 01:02:11;;;;;;;;;;;;;;;20.84;58.41;95376.22;1040974;28;1211;-70
2021/07/30 01:02:41;;;;;;;;;;;;;;;20.84;58.33;95375.41;1036994;28;1054;-70
2021/07/30 01:03:11;;;;;;;;;;;;;;;20.83;58.31;95368.59;1044352;28;1281;-70
2021/07/30 01:03:42;;;;;;;;;;;;;;;20.82;58.31;95370.44;1043292;28;1206;-70
2021/07/30 01:04:12;;;;;;;;;;;;;;;20.84;58.29;95373.56;1042221;28;2557;-69
2021/07/30 01:04:43;;;;;;;;;;;;;;;20.85;58.24;95372.53;1040021;28;1559;-69
2021/07/30 01:05:13;;;;;;;;;;;;;;;20.84;58.37;95372.78;1039815;28;2206;-70
2021/07/30 01:05:43;;;;;;;;;;;;;;;20.84;58.29;95370.16;1037832;28;1404;-69
2021/07/30 01:06:14;;;;;;;;;;;;;;;20.82;58.65;95367.81;1040623;28;1345;-69
2021/07/30 01:06:44;;;;;;;;;;;;;;;20.82;58.49;95373.06;1040018;28;1257;-69
2021/07/30 01:07:14;;;;;;;;;;;;;;;20.81;58.42;95373.38;1040632;28;1267;-70
2021/07/30 01:07:44;;;;;;;;;;;;;;;20.83;58.60;95374.66;1032483;28;1356;-69
2021/07/30 01:08:15;;;;;;;;;;;;;;;20.82;58.39;95378.34;1031161;28;1973;-69
2021/07/30 01:08:45;;;;;;;;;;;;;;;20.83;58.46;95374.66;1035672;28;1184;-70
2021/07/30 01:09:15;;;;;;;;;;;;;;;20.83;58.42;95372.03;1036539;28;789;-69
2021/07/30 01:09:50;;;;;;;;;;;;;;;20.82;58.39;95373.06;1035233;28;1033;-69
2021/07/30 01:10:20;;;;;;;;;;;;;;;20.81;58.51;95366.22;1037564;28;2149;-69
2021/07/30 01:10:51;;;;;;;;;;;;;;;20.81;58.53;95366.22;1036812;28;2040;-70
2021/07/30 01:11:35;;;;;;;;;;;;;;;20.83;58.56;95369.41;1043937;28;1351;-70
2021/07/30 01:12:07;;;;;;;;;;;;;;;20.84;58.60;95373.56;1043444;28;1167;-69
2021/07/30 01:12:43;;;;;;;;;;;;;;;20.84;58.38;95373.56;1040782;28;897;-69
2021/07/30 01:13:14;;;;;;;;;;;;;;;20.84;58.56;95376.22;1041715;28;1021;-69
2021/07/30 01:13:44;;;;;;;;;;;;;;;20.86;58.46;95368.03;1044676;28;1191;-70
2021/07/30 01:14:15;;;;;;;;;;;;;;;20.86;58.36;95374.06;1044482;28;1319;-69
2021/07/30 01:14:49;;;;;;;;;;;;;;;20.87;58.37;95370.38;1043436;28;1040;-70
2021/07/30 01:15:19;;;;;;;;;;;;;;;20.90;58.50;95374.28;1043982;28;2449;-70
2021/07/30 01:15:50;;;;;;;;;;;;;;;20.89;58.55;95370.88;1044187;28;1746;-69
2021/07/30 01:16:40;;;;;;;;;;;;;;;20.91;58.47;95367.97;1036483;28;1386;-71
2021/07/30 01:17:30;;;;;;;;;;;;;;;20.92;58.37;95365.03;1040514;28;1113;-69
2021/07/30 01:18:20;;;;;;;;;;;;;;;20.95;58.44;95363.69;1040490;28;1198;-69
2021/07/30 01:18:59;;;;;;;;;;;;;;;20.95;58.44;95364.47;1044806;28;1320;-69
2021/07/30 01:19:30;;;;;;;;;;;;;;;20.95;58.28;95364.47;1042909;28;1261;-69
2021/07/30 01:20:00;;;;;;;;;;;;;;;20.94;58.20;95365.53;1036402;28;1456;-69
2021/07/30 01:20:31;;;;;;;;;;;;;;;20.94;58.37;95365.53;1035266;28;2134;-69
2021/07/30 01:21:04;;;;;;;;;;;;;;;20.94;58.30;95360.25;1036639;28;1124;-69
2021/07/30 01:21:34;;;;;;;;;;;;;;;20.94;58.44;95362.09;1037476;28;725;-69
2021/07/30 01:22:14;;;;;;;;;;;;;;;20.93;58.18;95371.09;1038856;28;1902;-69
2021/07/30 01:22:54;;;;;;;;;;;;;;;20.93;58.40;95366.63;1037173;28;1479;-69
2021/07/30 01:23:24;;;;;;;;;;;;;;;20.93;58.37;95369.25;1035707;28;712;-69
2021/07/30 01:23:55;;;;;;;;;;;;;;;20.93;58.24;95366.63;1034793;28;1666;-69
2021/07/30 01:24:26;;;;;;;;;;;;;;;20.96;58.10;95368.66;1040084;28;1189;-69
2021/07/30 01:24:56;;;;;;;;;;;;;;;20.97;57.99;95367.63;1042288;28;1201;-69
2021/07/30 01:25:27;;;;;;;;;;;;;;;20.97;58.25;95358.91;1043619;28;2226;-69
2021/07/30 01:25:58;;;;;;;;;;;;;;;20.98;57.99;95366.53;1043833;28;1146;-69
2021/07/30 01:26:28;;;;;;;;;;;;;;;20.98;58.25;95356.00;1045153;28;1066;-69
2021/07/30 01:26:58;;;;;;;;;;;;;;;20.99;58.12;95357.56;1044779;28;1139;-69
2021/07/30 01:27:28;;;;;;;;;;;;;;;21.00;58.09;95359.13;1044506;28;1458;-69
2021/07/30 01:27:59;;;;;;;;;;;;;;;21.01;58.16;95357.28;1042423;28;1207;-69
2021/07/30 01:28:30;;;;;;;;;;;;;;;21.01;58.07;95360.72;1040385;28;1182;-68
2021/07/30 01:29:00;;;;;;;;;;;;;;;21.03;57.92;95365.72;1038826;28;1100;-69
2021/07/30 01:29:30;;;;;;;;;;;;;;;21.03;57.99;95360.44;1040492;28;1221;-69
2021/07/30 01:30:01;;;;;;;;;;;;;;;21.04;58.12;95359.38;1044990;28;1135;-69
2021/07/30 01:30:31;;;;;;;;;;;;;;;21.04;57.79;95364.66;1041907;28;2235;-70
2021/07/30 01:31:01;;;;;;;;;;;;;;;21.04;57.94;95362.78;1043808;28;1301;-69
2021/07/30 01:31:32;;;;;;;;;;;;;;;21.05;57.96;95359.09;1044809;28;1422;-69
2021/07/30 01:32:02;;;;;;;;;;;;;;;21.06;57.91;95362.53;1039693;28;1550;-69
2021/07/30 01:32:32;;;;;;;;;;;;;;;21.08;57.72;95356.97;1037700;28;1204;-69
2021/07/30 01:33:03;;;;;;;;;;;;;;;21.10;57.86;95357.44;1036129;28;1530;-69
2021/07/30 01:33:33;;;;;;;;;;;;;;;21.11;57.71;95365.06;1033875;28;1967;-69
2021/07/30 01:34:03;;;;;;;;;;;;;;;21.11;57.76;95362.44;1037702;28;2474;-69
2021/07/30 01:34:33;;;;;;;;;;;;;;;21.12;57.85;95365.84;1039089;28;2055;-69
2021/07/30 01:35:04;;;;;;;;;;;;;;;21.11;57.65;95365.06;1043047;28;1199;-69
2021/07/30 01:35:34;;;;;;;;;;;;;;;21.13;57.61;95364.78;1040232;28;2484;-69
2021/07/30 01:36:04;;;;;;;;;;;;;;;21.15;57.61;95362.63;1043623;28;1238;-69
2021/07/30 01:36:35;;;;;;;;;;;;;;;21.15;57.42;95365.28;1044959;28;930;-69
2021/07/30 01:37:05;;;;;;;;;;;;;;;21.16;57.76;95362.38;1046689;28;1174;-69
2021/07/30 01:37:35;;;;;;;;;;;;;;;21.18;57.36;95365.50;1043178;28;1210;-69
2021/07/30 01:38:05;;;;;;;;;;;;;;;21.20;57.38;95359.94;1043793;28;1262;-69
2021/07/30 01:38:36;;;;;;;;;;;;;;;21.20;57.63;95360.72;1044614;28;1612;-69
2021/07/30 01:39:06;;;;;;;;;;;;;;;21.20;57.41;95362.56;1044717;28;1143;-69
2021/07/30 01:39:36;;;;;;;;;;;;;;;21.18;57.53;95356.81;1044986;28;831;-69
2021/07/30 01:40:07;;;;;;;;;;;;;;;21.17;57.45;95356.00;1045015;28;1183;-69
2021/07/30 01:40:37;;;;;;;;;;;;;;;21.16;57.66;95361.59;1041747;28;2083;-69
2021/07/30 01:41:10;;;;;;;;;;;;;;;21.14;57.75;95359.25;1043734;28;1698;-69
2021/07/30 01:41:40;;;;;;;;;;;;;;;21.13;57.53;95356.88;1041504;28;1970;-70
2021/07/30 01:42:11;;;;;;;;;;;;;;;21.14;57.46;95353.19;1035691;28;1793;-69
2021/07/30 01:42:41;;;;;;;;;;;;;;;21.16;57.64;95351.81;1036616;28;1026;-69
2021/07/30 01:43:11;;;;;;;;;;;;;;;21.17;57.52;95357.84;1043972;28;1216;-69
2021/07/30 01:43:42;;;;;;;;;;;;;;;21.16;57.64;95357.09;1043809;28;1194;-69
2021/07/30 01:44:14;;;;;;;;;;;;;;;21.15;57.67;95355.50;1052549;28;1222;-70
2021/07/30 01:44:44;;;;;;;;;;;;;;;21.15;57.59;95352.09;1048996;28;1165;-69
2021/07/30 01:45:15;;;;;;;;;;;;;;;21.14;57.42;95353.97;1044667;28;1193;-69
2021/07/30 01:45:45;;;;;;;;;;;;;;;21.15;57.63;95355.50;1043212;28;2578;-69
2021/07/30 01:46:15;;;;;;;;;;;;;;;21.15;57.73;95354.72;1045112;28;1042;-70
2021/07/30 01:46:47;;;;;;;;;;;;;;;21.14;57.69;95347.91;1044913;28;1169;-69
2021/07/30 01:47:19;;;;;;;;;;;;;;;21.14;57.69;95351.34;1044399;28;2609;-69
2021/07/30 01:47:51;;;;;;;;;;;;;;;21.15;57.77;95368.69;1048849;28;1201;-70
2021/07/30 01:48:21;;;;;;;;;;;;;;;21.14;57.46;95356.59;1047801;28;1134;-69
2021/07/30 01:48:52;;;;;;;;;;;;;;;21.13;57.58;95357.66;1044660;28;1171;-69
2021/07/30 01:49:22;;;;;;;;;;;;;;;21.13;57.54;95356.88;1044699;28;868;-69
2021/07/30 01:49:52;;;;;;;;;;;;;;;21.13;57.71;95362.94;1045682;28;1178;-69
2021/07/30 01:50:23;;;;;;;;;;;;;;;21.15;57.46;95360.78;1043732;28;2162;-69
2021/07/30 01:50:53;;;;;;;;;;;;;;;21.16;57.56;95361.59;1038346;28;1490;-69
2021/07/30 01:51:23;;;;;;;;;;;;;;;21.14;57.55;95353.19;1040068;28;1935;-69
2021/07/30 01:51:53;;;;;;;;;;;;;;;21.13;57.55;95357.66;1041282;28;1136;-70
2021/07/30 01:52:24;;;;;;;;;;;;;;;21.14;57.53;95353.19;1045548;28;1136;-70
2021/07/30 01:52:54;;;;;;;;;;;;;;;21.15;57.53;95352.09;1045017;28;1154;-69
2021/07/30 01:53:24;;;;;;;;;;;;;;;21.15;57.53;95354.72;1043939;28;1141;-69
2021/07/30 01:53:54;;;;;;;;;;;;;;;21.15;57.66;95354.72;1043626;28;1437;-69
2021/07/30 01:54:25;;;;;;;;;;;;;;;21.14;57.47;95353.19;1044600;28;1375;-69
2021/07/30 01:54:55;;;;;;;;;;;;;;;21.12;57.48;95352.69;1044014;28;1155;-69
2021/07/30 01:55:25;;;;;;;;;;;;;;;21.13;57.33;95354.22;1040623;28;2107;-69
2021/07/30 01:55:56;;;;;;;;;;;;;;;21.13;57.75;95347.13;1042978;28;2411;-69
2021/07/30 01:56:26;;;;;;;;;;;;;;;21.13;57.46;95348.97;1041386;28;1156;-69
2021/07/30 01:56:56;;;;;;;;;;;;;;;21.12;57.56;95348.19;1046405;28;1198;-69
2021/07/30 01:57:27;;;;;;;;;;;;;;;21.12;57.48;95344.78;1040967;28;2069;-69
2021/07/30 01:57:57;;;;;;;;;;;;;;;21.11;57.30;95346.63;1044479;28;1179;-68
2021/07/30 01:58:28;;;;;;;;;;;;;;;21.12;57.44;95345.56;1044761;28;1118;-69
2021/07/30 01:58:58;;;;;;;;;;;;;;;21.13;57.46;95348.97;1044716;28;1190;-69
2021/07/30 01:59:28;;;;;;;;;;;;;;;21.11;57.42;95349.25;1044653;28;1186;-69
2021/07/30 01:59:59;;;;;;;;;;;;;;;21.12;57.31;95350.03;1044686;28;1150;-69
2021/07/30 02:00:29;;;;;;;;;;;;;;;21.11;57.50;95353.72;1043184;28;2191;-69
2021/07/30 02:01:00;;;;;;;;;;;;;;;21.11;57.63;95354.53;1041195;28;1740;-69
2021/07/30 02:01:30;;;;;;;;;;;;;;;21.12;57.73;95360.59;1042736;28;1214;-69
2021/07/30 02:02:00;;;;;;;;;;;;;;;21.11;57.70;95351.88;1046463;28;1906;-69
2021/07/30 02:02:33;;;;;;;;;;;;;;;21.11;57.47;95354.53;1044562;28;984;-69
2021/07/30 02:03:03;;;;;;;;;;;;;;;21.11;57.69;95356.38;1045976;28;1120;-69
2021/07/30 02:03:33;;;;;;;;;;;;;;;21.10;57.44;95362.72;1044627;28;1049;-70
2021/07/30 02:04:04;;;;;;;;;;;;;;;21.11;57.79;95359.00;1043026;28;2100;-69
2021/07/30 02:04:34;;;;;;;;;;;;;;;21.10;57.44;95354.81;1040650;28;2505;-69
2021/07/30 02:05:06;;;;;;;;;;;;;;;21.11;57.62;95353.72;1046442;28;1221;-70
2021/07/30 02:05:37;;;;;;;;;;;;;;;21.13;57.42;95356.88;1043192;28;2037;-69
2021/07/30 02:06:07;;;;;;;;;;;;;;;21.12;57.61;95364.00;1040887;28;1455;-69
2021/07/30 02:06:38;;;;;;;;;;;;;;;21.11;57.51;95362.44;1048511;28;1195;-69
2021/07/30 02:07:08;;;;;;;;;;;;;;;21.11;57.54;95364.28;1045335;28;1159;-69
2021/07/30 02:07:38;;;;;;;;;;;;;;;21.11;57.64;95361.63;1039717;28;1826;-69
2021/07/30 02:08:08;;;;;;;;;;;;;;;21.10;57.61;95362.72;1043176;28;1234;-69
2021/07/30 02:08:39;;;;;;;;;;;;;;;21.10;57.47;95360.88;1044710;28;1010;-69
2021/07/30 02:09:09;;;;;;;;;;;;;;;21.10;57.54;95358.25;1047791;28;1198;-68
2021/07/30 02:09:42;;;;;;;;;;;;;;;21.10;57.68;95357.44;1046826;28;1229;-69
2021/07/30 02:10:12;;;;;;;;;;;;;;;21.11;57.69;95369.53;1048535;28;1313;-69
2021/07/30 02:10:43;;;;;;;;;;;;;;;21.10;57.57;95360.09;1044056;28;2187;-69
2021/07/30 02:11:13;;;;;;;;;;;;;;;21.10;57.61;95362.72;1044456;28;1242;-69
2021/07/30 02:11:43;;;;;;;;;;;;;;;21.10;57.52;95357.44;1044697;28;1227;-69
2021/07/30 02:12:14;;;;;;;;;;;;;;;21.10;57.56;95365.34;1044732;28;1055;-69
2021/07/30 02:14:25;;;;;;;;;;;;;;;21.08;57.86;95356.97;1043170;28;1383;-69
2021/07/30 02:14:56;;;;;;;;;;;;;;;21.10;57.63;95358.25;1047276;28;1138;-69
2021/07/30 02:15:26;;;;;;;;;;;;;;;21.09;57.67;95361.94;1044010;28;2114;-69
2021/07/30 02:15:56;;;;;;;;;;;;;;;21.08;57.53;95361.16;1042853;28;1575;-69
2021/07/30 02:16:26;;;;;;;;;;;;;;;21.08;57.59;95363.78;1044421;28;1221;-69
2021/07/30 02:16:58;;;;;;;;;;;;;;;21.08;57.78;95360.38;1045371;28;1826;-69
2021/07/30 02:17:28;;;;;;;;;;;;;;;21.08;57.63;95358.50;1043823;28;1582;-70
2021/07/30 02:17:58;;;;;;;;;;;;;;;21.08;57.55;95359.59;1042600;28;1194;-69
2021/07/30 02:18:28;;;;;;;;;;;;;;;21.08;57.72;95370.13;1048730;28;780;-69
2021/07/30 02:18:59;;;;;;;;;;;;;;;21.06;57.61;95360.66;1044285;28;1210;-69
2021/07/30 02:19:29;;;;;;;;;;;;;;;21.07;57.81;95364.06;1044139;28;1194;-69
2021/07/30 02:19:59;;;;;;;;;;;;;;;21.06;57.63;95360.66;1042357;28;1202;-69
2021/07/30 02:20:29;;;;;;;;;;;;;;;21.06;57.84;95365.91;1039393;28;2137;-69
2021/07/30 02:21:00;;;;;;;;;;;;;;;21.06;57.90;95365.91;1044362;28;1010;-69
2021/07/30 02:21:30;;;;;;;;;;;;;;;21.05;57.66;95364.38;1043930;28;1439;-69
2021/07/30 02:22:00;;;;;;;;;;;;;;;21.04;57.93;95364.66;1044523;28;1906;-69
2021/07/30 02:22:30;;;;;;;;;;;;;;;21.04;57.75;95369.94;1042145;28;1629;-69
2021/07/30 02:23:01;;;;;;;;;;;;;;;21.03;57.97;95369.13;1044659;28;1103;-69
2021/07/30 02:23:31;;;;;;;;;;;;;;;21.01;57.92;95373.88;1043931;28;1426;-69
2021/07/30 02:24:01;;;;;;;;;;;;;;;20.99;57.98;95376.03;1044854;28;1088;-69
2021/07/30 02:24:34;;;;;;;;;;;;;;;20.99;58.12;95376.03;1044685;28;1372;-69
2021/07/30 02:25:04;;;;;;;;;;;;;;;20.97;58.22;95372.09;1044682;28;1166;-69
2021/07/30 02:25:35;;;;;;;;;;;;;;;20.97;58.17;95372.09;1043230;28;2067;-69
2021/07/30 02:26:05;;;;;;;;;;;;;;;20.96;58.19;95373.94;1044964;28;1163;-69
2021/07/30 02:26:36;;;;;;;;;;;;;;;20.93;58.16;95369.25;1042801;28;1776;-69
2021/07/30 02:27:06;;;;;;;;;;;;;;;20.93;57.85;95368.47;1046588;28;1179;-69
2021/07/30 02:27:36;;;;;;;;;;;;;;;20.93;58.12;95361.34;1044677;28;1213;-69
2021/07/30 02:28:06;;;;;;;;;;;;;;;20.94;58.14;95370.00;1047484;28;1203;-68
2021/07/30 02:28:37;;;;;;;;;;;;;;;20.94;58.24;95370.00;1048875;28;1025;-69
2021/07/30 02:29:07;;;;;;;;;;;;;;;20.95;58.20;95367.13;1040616;28;1246;-69
2021/07/30 02:29:37;;;;;;;;;;;;;;;20.94;57.92;95368.16;1048343;28;1139;-69
2021/07/30 02:30:08;;;;;;;;;;;;;;;20.93;57.96;95363.19;1045458;28;1181;-69
2021/07/30 02:30:38;;;;;;;;;;;;;;;20.94;58.23;95370.81;1043464;28;2123;-69
2021/07/30 02:31:08;;;;;;;;;;;;;;;20.94;58.06;95368.16;1043750;28;1183;-69
2021/07/30 02:31:39;;;;;;;;;;;;;;;20.95;58.19;95371.59;1044267;28;1394;-69
2021/07/30 02:32:09;;;;;;;;;;;;;;;20.93;58.22;95374.53;1044583;28;1316;-69
2021/07/30 02:32:39;;;;;;;;;;;;;;;20.93;58.19;95376.38;1045856;28;1676;-69
2021/07/30 02:33:09;;;;;;;;;;;;;;;20.91;58.42;95376.66;1045117;28;1126;-69
2021/07/30 02:33:40;;;;;;;;;;;;;;;20.90;58.06;95379.56;1044644;28;1465;-69
2021/07/30 02:34:10;;;;;;;;;;;;;;;20.87;58.41;95383.56;1043442;28;2222;-69
2021/07/30 02:34:40;;;;;;;;;;;;;;;20.86;58.38;95371.44;1044096;28;863;-69
2021/07/30 02:35:11;;;;;;;;;;;;;;;20.85;58.50;95379.63;1044445;28;1219;-69
2021/07/30 02:35:41;;;;;;;;;;;;;;;20.84;58.36;95383.31;1041524;28;2072;-68
2021/07/30 02:36:11;;;;;;;;;;;;;;;20.83;58.62;95384.41;1041859;28;1179;-69
2021/07/30 02:36:42;;;;;;;;;;;;;;;20.81;58.44;95383.91;1040187;28;2401;-69
2021/07/30 02:37:13;;;;;;;;;;;;;;;20.78;58.66;95382.63;1046831;28;1337;-68
2021/07/30 02:37:43;;;;;;;;;;;;;;;20.77;58.53;95381.03;1043773;28;1169;-69
2021/07/30 02:38:14;;;;;;;;;;;;;;;20.75;58.89;95377.13;1048080;28;1234;-69
2021/07/30 02:38:45;;;;;;;;;;;;;;;20.75;58.79;95379.78;1044972;28;1327;-69
2021/07/30 02:39:15;;;;;;;;;;;;;;;20.74;58.76;95375.56;1044234;28;2128;-69
2021/07/30 02:39:45;;;;;;;;;;;;;;;20.72;58.81;95378.47;1044519;28;1119;-70
2021/07/30 02:40:16;;;;;;;;;;;;;;;20.72;59.03;95383.75;1045789;28;1229;-69
2021/07/30 02:40:46;;;;;;;;;;;;;;;20.69;58.81;95389.56;1042702;28;2155;-69
2021/07/30 02:41:16;;;;;;;;;;;;;;;20.68;58.79;95380.13;1044465;28;1426;-69
2021/07/30 02:41:46;;;;;;;;;;;;;;;20.66;59.03;95379.63;1043793;28;1910;-69
2021/07/30 02:42:17;;;;;;;;;;;;;;;20.66;59.08;95384.88;1044742;28;1112;-69
2021/07/30 02:42:47;;;;;;;;;;;;;;;20.66;58.99;95378.81;1044776;28;1186;-69
2021/07/30 02:43:17;;;;;;;;;;;;;;;20.67;59.22;95380.41;1044780;28;950;-70
2021/07/30 02:43:47;;;;;;;;;;;;;;;20.64;59.13;95376.47;1044295;28;1186;-70
2021/07/30 02:44:18;;;;;;;;;;;;;;;20.66;59.38;95381.47;1044764;28;1647;-69